Terminal Aerodrome Forecast
Issued by NWS Portland, OR

Home | Current Version | Previous Version | Text Only | Print | Product List | Glossary On
Versions: 1 2 3 4 5 6 7 8 9 10 11 12 13 14 15 16 17 18
000
FTUS46 KPQR 211737
TAFHIO
TAF
KHIO 211737Z 2118/2218 28006KT 6SM -RA BR SCT020 OVC035
     FM212100 29004KT P6SM BKN035
     FM221200 00000KT P6SM OVC050=

USA.gov is the U.S. government's official web portal to all federal, state and local government web resources and services.